sensor_id;sensor_type;location;lat;lon;timestamp;temperature;humidity
17080;DHT22;8655;57.106;-2.088;2024-03-17T00:01:55;17.20;50.00
17080;DHT22;8655;57.106;-2.088;2024-03-17T00:04:20;17.20;50.00
17080;DHT22;8655;57.106;-2.088;2024-03-17T00:06:47;17.20;50.00
17080;DHT22;8655;57.106;-2.088;2024-03-17T00:09:12;17.20;50.00
17080;DHT22;8655;57.106;-2.088;2024-03-17T00:11:38;17.20;50.00
17080;DHT22;8655;57.106;-2.088;2024-03-17T00:14:05;17.20;50.00
17080;DHT22;8655;57.106;-2.088;2024-03-17T00:16:31;17.20;50.00
17080;DHT22;8655;57.106;-2.088;2024-03-17T00:18:56;17.20;50.00
17080;DHT22;8655;57.106;-2.088;2024-03-17T00:21:22;17.10;49.90
17080;DHT22;8655;57.106;-2.088;2024-03-17T00:23:49;17.10;49.90
17080;DHT22;8655;57.106;-2.088;2024-03-17T00:26:15;17.10;50.50
17080;DHT22;8655;57.106;-2.088;2024-03-17T00:28:41;17.10;49.80
17080;DHT22;8655;57.106;-2.088;2024-03-17T00:31:07;17.10;49.80
17080;DHT22;8655;57.106;-2.088;2024-03-17T00:33:35;17.10;49.80
17080;DHT22;8655;57.106;-2.088;2024-03-17T00:36:01;17.10;49.80
17080;DHT22;8655;57.106;-2.088;2024-03-17T00:38:27;17.10;50.40
17080;DHT22;8655;57.106;-2.088;2024-03-17T00:40:52;17.10;49.80
17080;DHT22;8655;57.106;-2.088;2024-03-17T00:43:18;17.00;49.80
17080;DHT22;8655;57.106;-2.088;2024-03-17T00:45:50;17.00;49.70
17080;DHT22;8655;57.106;-2.088;2024-03-17T00:48:16;17.00;49.70
17080;DHT22;8655;57.106;-2.088;2024-03-17T00:50:42;17.00;49.70
17080;DHT22;8655;57.106;-2.088;2024-03-17T00:53:13;17.00;49.70
17080;DHT22;8655;57.106;-2.088;2024-03-17T00:55:39;17.00;49.70
17080;DHT22;8655;57.106;-2.088;2024-03-17T00:58:05;17.00;49.70
17080;DHT22;8655;57.106;-2.088;2024-03-17T01:00:31;17.00;49.70
17080;DHT22;8655;57.106;-2.088;2024-03-17T01:02:58;17.00;49.70
17080;DHT22;8655;57.106;-2.088;2024-03-17T01:05:24;16.90;49.70
17080;DHT22;8655;57.106;-2.088;2024-03-17T01:07:50;16.90;49.60
17080;DHT22;8655;57.106;-2.088;2024-03-17T01:10:16;16.90;49.60
17080;DHT22;8655;57.106;-2.088;2024-03-17T01:12:41;16.90;49.60
17080;DHT22;8655;57.106;-2.088;2024-03-17T01:15:07;16.90;49.60
17080;DHT22;8655;57.106;-2.088;2024-03-17T01:17:34;16.90;49.60
17080;DHT22;8655;57.106;-2.088;2024-03-17T01:19:59;16.90;49.60
17080;DHT22;8655;57.106;-2.088;2024-03-17T01:22:25;16.90;49.60
17080;DHT22;8655;57.106;-2.088;2024-03-17T01:24:51;16.90;49.60
17080;DHT22;8655;57.106;-2.088;2024-03-17T01:27:17;16.90;49.70
17080;DHT22;8655;57.106;-2.088;2024-03-17T01:29:43;16.80;49.50
17080;DHT22;8655;57.106;-2.088;2024-03-17T01:32:09;16.90;49.60
17080;DHT22;8655;57.106;-2.088;2024-03-17T01:34:36;16.80;49.50
17080;DHT22;8655;57.106;-2.088;2024-03-17T01:37:02;16.80;49.50
17080;DHT22;8655;57.106;-2.088;2024-03-17T01:39:28;16.80;49.50
17080;DHT22;8655;57.106;-2.088;2024-03-17T01:41:53;16.80;49.50
17080;DHT22;8655;57.106;-2.088;2024-03-17T01:44:23;16.80;49.50
17080;DHT22;8655;57.106;-2.088;2024-03-17T01:46:50;16.80;49.50
17080;DHT22;8655;57.106;-2.088;2024-03-17T01:49:17;16.80;49.50
17080;DHT22;8655;57.106;-2.088;2024-03-17T01:51:47;16.80;49.50
17080;DHT22;8655;57.106;-2.088;2024-03-17T01:54:14;16.80;49.60
17080;DHT22;8655;57.106;-2.088;2024-03-17T01:56:41;16.70;49.50
17080;DHT22;8655;57.106;-2.088;2024-03-17T01:59:08;16.70;49.50
17080;DHT22;8655;57.106;-2.088;2024-03-17T02:01:35;16.70;49.50
17080;DHT22;8655;57.106;-2.088;2024-03-17T02:04:00;16.70;49.50
17080;DHT22;8655;57.106;-2.088;2024-03-17T02:06:27;16.80;49.60
17080;DHT22;8655;57.106;-2.088;2024-03-17T02:08:54;16.70;49.50
17080;DHT22;8655;57.106;-2.088;2024-03-17T02:11:37;16.70;50.10
17080;DHT22;8655;57.106;-2.088;2024-03-17T02:14:03;16.70;49.50
17080;DHT22;8655;57.106;-2.088;2024-03-17T02:16:31;16.70;49.50
17080;DHT22;8655;57.106;-2.088;2024-03-17T02:18:58;16.70;49.50
17080;DHT22;8655;57.106;-2.088;2024-03-17T02:21:24;16.70;49.50
17080;DHT22;8655;57.106;-2.088;2024-03-17T02:23:51;16.60;49.40
17080;DHT22;8655;57.106;-2.088;2024-03-17T02:26:17;16.60;49.40
17080;DHT22;8655;57.106;-2.088;2024-03-17T02:28:45;16.60;49.40
17080;DHT22;8655;57.106;-2.088;2024-03-17T02:31:12;16.60;49.40
17080;DHT22;8655;57.106;-2.088;2024-03-17T02:33:38;16.60;49.40
17080;DHT22;8655;57.106;-2.088;2024-03-17T02:36:05;16.60;49.50
17080;DHT22;8655;57.106;-2.088;2024-03-17T02:38:33;16.60;49.40
17080;DHT22;8655;57.106;-2.088;2024-03-17T02:41:18;16.60;49.40
17080;DHT22;8655;57.106;-2.088;2024-03-17T02:43:44;16.60;49.40
17080;DHT22;8655;57.106;-2.088;2024-03-17T02:46:15;16.60;49.50
17080;DHT22;8655;57.106;-2.088;2024-03-17T02:51:39;16.50;49.40
17080;DHT22;8655;57.106;-2.088;2024-03-17T02:54:04;16.50;49.40
17080;DHT22;8655;57.106;-2.088;2024-03-17T02:56:31;16.50;49.40
17080;DHT22;8655;57.106;-2.088;2024-03-17T02:58:57;16.50;49.40
17080;DHT22;8655;57.106;-2.088;2024-03-17T03:01:23;16.50;49.40
17080;DHT22;8655;57.106;-2.088;2024-03-17T03:03:48;16.50;49.40
17080;DHT22;8655;57.106;-2.088;2024-03-17T03:06:15;16.50;49.40
17080;DHT22;8655;57.106;-2.088;2024-03-17T03:08:44;16.50;49.40
17080;DHT22;8655;57.106;-2.088;2024-03-17T03:11:14;16.50;49.40
17080;DHT22;8655;57.106;-2.088;2024-03-17T03:13:41;16.50;49.40
17080;DHT22;8655;57.106;-2.088;2024-03-17T03:16:08;16.50;49.40
17080;DHT22;8655;57.106;-2.088;2024-03-17T03:18:35;16.50;49.40
17080;DHT22;8655;57.106;-2.088;2024-03-17T03:21:00;16.40;49.30
17080;DHT22;8655;57.106;-2.088;2024-03-17T03:23:26;16.40;49.30
17080;DHT22;8655;57.106;-2.088;2024-03-17T03:25:56;16.40;49.40
17080;DHT22;8655;57.106;-2.088;2024-03-17T03:28:25;16.40;49.40
17080;DHT22;8655;57.106;-2.088;2024-03-17T03:30:51;16.40;49.30
17080;DHT22;8655;57.106;-2.088;2024-03-17T03:33:20;16.40;49.30
17080;DHT22;8655;57.106;-2.088;2024-03-17T03:35:46;16.40;49.40
17080;DHT22;8655;57.106;-2.088;2024-03-17T03:38:13;16.40;49.30
17080;DHT22;8655;57.106;-2.088;2024-03-17T03:40:41;16.40;49.40
17080;DHT22;8655;57.106;-2.088;2024-03-17T03:43:11;16.40;49.40
17080;DHT22;8655;57.106;-2.088;2024-03-17T03:45:38;16.40;49.40
17080;DHT22;8655;57.106;-2.088;2024-03-17T03:48:04;16.40;49.40
17080;DHT22;8655;57.106;-2.088;2024-03-17T03:50:30;16.40;49.40
17080;DHT22;8655;57.106;-2.088;2024-03-17T03:52:57;16.40;49.40
17080;DHT22;8655;57.106;-2.088;2024-03-17T03:55:22;16.40;49.40
17080;DHT22;8655;57.106;-2.088;2024-03-17T03:57:49;16.40;49.40
17080;DHT22;8655;57.106;-2.088;2024-03-17T04:00:18;16.40;49.40
17080;DHT22;8655;57.106;-2.088;2024-03-17T04:02:51;16.40;49.40
17080;DHT22;8655;57.106;-2.088;2024-03-17T04:05:18;16.30;49.30
17080;DHT22;8655;57.106;-2.088;2024-03-17T04:07:46;16.30;49.30
17080;DHT22;8655;57.106;-2.088;2024-03-17T04:10:13;16.30;49.30
17080;DHT22;8655;57.106;-2.088;2024-03-17T04:12:39;16.30;49.30
17080;DHT22;8655;57.106;-2.088;2024-03-17T04:15:06;16.30;49.30
17080;DHT22;8655;57.106;-2.088;2024-03-17T04:17:33;16.30;49.30
17080;DHT22;8655;57.106;-2.088;2024-03-17T04:19:59;16.30;49.30
17080;DHT22;8655;57.106;-2.088;2024-03-17T04:22:25;16.30;49.30
17080;DHT22;8655;57.106;-2.088;2024-03-17T04:24:51;16.30;49.30
17080;DHT22;8655;57.106;-2.088;2024-03-17T04:27:28;16.30;49.30
17080;DHT22;8655;57.106;-2.088;2024-03-17T04:29:58;16.30;49.30
17080;DHT22;8655;57.106;-2.088;2024-03-17T04:32:24;16.30;49.30
17080;DHT22;8655;57.106;-2.088;2024-03-17T04:34:52;16.30;49.30
17080;DHT22;8655;57.106;-2.088;2024-03-17T04:37:18;16.20;49.20
17080;DHT22;8655;57.106;-2.088;2024-03-17T04:39:45;16.20;49.20
17080;DHT22;8655;57.106;-2.088;2024-03-17T04:42:12;16.20;49.30
17080;DHT22;8655;57.106;-2.088;2024-03-17T04:44:43;16.20;49.30
17080;DHT22;8655;57.106;-2.088;2024-03-17T04:47:10;16.20;49.20
17080;DHT22;8655;57.106;-2.088;2024-03-17T04:52:01;16.20;49.30
17080;DHT22;8655;57.106;-2.088;2024-03-17T04:54:27;16.20;49.30
17080;DHT22;8655;57.106;-2.088;2024-03-17T04:56:52;16.20;49.30
17080;DHT22;8655;57.106;-2.088;2024-03-17T04:59:18;16.20;49.30
17080;DHT22;8655;57.106;-2.088;2024-03-17T05:01:44;16.20;49.30
17080;DHT22;8655;57.106;-2.088;2024-03-17T05:04:10;16.20;49.30
17080;DHT22;8655;57.106;-2.088;2024-03-17T05:06:35;16.20;49.30
17080;DHT22;8655;57.106;-2.088;2024-03-17T05:09:02;16.20;49.30
17080;DHT22;8655;57.106;-2.088;2024-03-17T05:11:30;16.20;49.30
17080;DHT22;8655;57.106;-2.088;2024-03-17T05:13:56;16.20;49.30
17080;DHT22;8655;57.106;-2.088;2024-03-17T05:16:22;16.10;49.30
17080;DHT22;8655;57.106;-2.088;2024-03-17T05:18:49;16.10;49.20
17080;DHT22;8655;57.106;-2.088;2024-03-17T05:21:15;16.10;49.30
17080;DHT22;8655;57.106;-2.088;2024-03-17T05:23:41;16.10;49.30
17080;DHT22;8655;57.106;-2.088;2024-03-17T05:26:06;16.10;49.30
17080;DHT22;8655;57.106;-2.088;2024-03-17T05:28:32;16.10;49.30
17080;DHT22;8655;57.106;-2.088;2024-03-17T05:30:59;16.10;49.30
17080;DHT22;8655;57.106;-2.088;2024-03-17T05:33:26;16.10;49.30
17080;DHT22;8655;57.106;-2.088;2024-03-17T05:36:00;16.10;49.30
17080;DHT22;8655;57.106;-2.088;2024-03-17T05:38:29;16.10;49.30
17080;DHT22;8655;57.106;-2.088;2024-03-17T05:40:58;16.10;49.30
17080;DHT22;8655;57.106;-2.088;2024-03-17T05:43:28;16.10;49.30
17080;DHT22;8655;57.106;-2.088;2024-03-17T05:45:58;16.10;49.30
17080;DHT22;8655;57.106;-2.088;2024-03-17T05:48:24;16.10;49.30
17080;DHT22;8655;57.106;-2.088;2024-03-17T05:50:52;16.10;49.30
17080;DHT22;8655;57.106;-2.088;2024-03-17T05:53:19;16.10;49.30
17080;DHT22;8655;57.106;-2.088;2024-03-17T05:55:45;16.10;49.40
17080;DHT22;8655;57.106;-2.088;2024-03-17T05:58:11;16.10;49.40
17080;DHT22;8655;57.106;-2.088;2024-03-17T06:00:38;16.00;49.30
17080;DHT22;8655;57.106;-2.088;2024-03-17T06:03:05;16.10;49.40
17080;DHT22;8655;57.106;-2.088;2024-03-17T06:05:38;16.00;49.20
17080;DHT22;8655;57.106;-2.088;2024-03-17T06:08:05;16.00;49.30
17080;DHT22;8655;57.106;-2.088;2024-03-17T06:10:35;16.00;49.30
17080;DHT22;8655;57.106;-2.088;2024-03-17T06:13:01;16.00;49.30
17080;DHT22;8655;57.106;-2.088;2024-03-17T06:15:27;16.00;49.30
17080;DHT22;8655;57.106;-2.088;2024-03-17T06:17:53;16.00;49.30
17080;DHT22;8655;57.106;-2.088;2024-03-17T06:20:24;16.00;49.30
17080;DHT22;8655;57.106;-2.088;2024-03-17T06:22:53;16.00;49.30
17080;DHT22;8655;57.106;-2.088;2024-03-17T06:25:18;16.00;49.30
17080;DHT22;8655;57.106;-2.088;2024-03-17T06:27:44;16.00;49.30
17080;DHT22;8655;57.106;-2.088;2024-03-17T06:30:12;16.00;49.30
17080;DHT22;8655;57.106;-2.088;2024-03-17T06:32:41;16.00;49.40
17080;DHT22;8655;57.106;-2.088;2024-03-17T06:35:08;16.00;49.40
17080;DHT22;8655;57.106;-2.088;2024-03-17T06:37:34;16.00;49.40
17080;DHT22;8655;57.106;-2.088;2024-03-17T06:40:01;16.00;49.50
17080;DHT22;8655;57.106;-2.088;2024-03-17T06:42:27;16.00;49.50
17080;DHT22;8655;57.106;-2.088;2024-03-17T06:44:53;16.00;49.60
17080;DHT22;8655;57.106;-2.088;2024-03-17T06:47:19;16.00;49.60
17080;DHT22;8655;57.106;-2.088;2024-03-17T06:49:45;16.00;49.60
17080;DHT22;8655;57.106;-2.088;2024-03-17T06:52:10;16.00;49.70
17080;DHT22;8655;57.106;-2.088;2024-03-17T06:54:36;16.10;49.80
17080;DHT22;8655;57.106;-2.088;2024-03-17T06:57:02;16.10;49.90
17080;DHT22;8655;57.106;-2.088;2024-03-17T06:59:27;16.10;49.90
17080;DHT22;8655;57.106;-2.088;2024-03-17T07:01:53;16.20;50.00
17080;DHT22;8655;57.106;-2.088;2024-03-17T07:04:19;16.20;50.10
17080;DHT22;8655;57.106;-2.088;2024-03-17T07:06:46;16.20;50.10
17080;DHT22;8655;57.106;-2.088;2024-03-17T07:09:12;16.30;50.30
17080;DHT22;8655;57.106;-2.088;2024-03-17T07:11:37;16.30;50.30
17080;DHT22;8655;57.106;-2.088;2024-03-17T07:14:03;16.30;50.40
17080;DHT22;8655;57.106;-2.088;2024-03-17T07:16:30;16.40;50.50
17080;DHT22;8655;57.106;-2.088;2024-03-17T07:18:57;16.40;50.50
17080;DHT22;8655;57.106;-2.088;2024-03-17T07:21:23;16.50;50.70
17080;DHT22;8655;57.106;-2.088;2024-03-17T07:23:48;16.50;50.70
17080;DHT22;8655;57.106;-2.088;2024-03-17T07:26:14;16.50;50.70
17080;DHT22;8655;57.106;-2.088;2024-03-17T07:28:40;16.60;50.90
17080;DHT22;8655;57.106;-2.088;2024-03-17T07:31:08;16.60;50.90
17080;DHT22;8655;57.106;-2.088;2024-03-17T07:33:34;16.70;51.00
17080;DHT22;8655;57.106;-2.088;2024-03-17T07:36:00;16.70;51.10
17080;DHT22;8655;57.106;-2.088;2024-03-17T07:38:27;16.80;51.20
17080;DHT22;8655;57.106;-2.088;2024-03-17T07:41:04;16.90;51.30
17080;DHT22;8655;57.106;-2.088;2024-03-17T07:43:35;16.90;51.40
17080;DHT22;8655;57.106;-2.088;2024-03-17T07:46:02;16.90;51.40
17080;DHT22;8655;57.106;-2.088;2024-03-17T07:48:33;17.00;51.50
17080;DHT22;8655;57.106;-2.088;2024-03-17T07:51:03;17.10;51.70
17080;DHT22;8655;57.106;-2.088;2024-03-17T07:53:33;17.10;51.70
17080;DHT22;8655;57.106;-2.088;2024-03-17T07:58:25;17.20;51.80
17080;DHT22;8655;57.106;-2.088;2024-03-17T08:00:52;17.20;51.90
17080;DHT22;8655;57.106;-2.088;2024-03-17T08:03:18;17.30;52.00
17080;DHT22;8655;57.106;-2.088;2024-03-17T08:05:51;17.30;52.00
17080;DHT22;8655;57.106;-2.088;2024-03-17T08:08:18;17.40;52.10
17080;DHT22;8655;57.106;-2.088;2024-03-17T08:10:44;17.40;52.10
17080;DHT22;8655;57.106;-2.088;2024-03-17T08:13:09;17.50;52.20
17080;DHT22;8655;57.106;-2.088;2024-03-17T08:15:36;17.50;52.30
17080;DHT22;8655;57.106;-2.088;2024-03-17T08:18:02;17.60;52.30
17080;DHT22;8655;57.106;-2.088;2024-03-17T08:20:29;17.60;52.40
17080;DHT22;8655;57.106;-2.088;2024-03-17T08:22:55;17.70;52.50
17080;DHT22;8655;57.106;-2.088;2024-03-17T08:25:21;17.70;52.50
17080;DHT22;8655;57.106;-2.088;2024-03-17T08:27:47;17.80;52.60
17080;DHT22;8655;57.106;-2.088;2024-03-17T08:30:13;17.80;52.60
17080;DHT22;8655;57.106;-2.088;2024-03-17T08:32:39;17.80;52.60
17080;DHT22;8655;57.106;-2.088;2024-03-17T08:35:06;17.90;52.70
17080;DHT22;8655;57.106;-2.088;2024-03-17T08:37:32;17.90;52.70
17080;DHT22;8655;57.106;-2.088;2024-03-17T08:39:58;17.90;53.30
17080;DHT22;8655;57.106;-2.088;2024-03-17T08:42:23;18.00;52.80
17080;DHT22;8655;57.106;-2.088;2024-03-17T08:44:49;18.00;52.80
17080;DHT22;8655;57.106;-2.088;2024-03-17T08:47:15;18.00;52.80
17080;DHT22;8655;57.106;-2.088;2024-03-17T08:49:41;18.10;52.90
17080;DHT22;8655;57.106;-2.088;2024-03-17T08:52:06;18.10;52.90
17080;DHT22;8655;57.106;-2.088;2024-03-17T08:54:32;18.10;52.90
17080;DHT22;8655;57.106;-2.088;2024-03-17T08:56:58;18.10;52.90
17080;DHT22;8655;57.106;-2.088;2024-03-17T08:59:24;18.20;52.90
17080;DHT22;8655;57.106;-2.088;2024-03-17T09:01:49;18.20;52.90
17080;DHT22;8655;57.106;-2.088;2024-03-17T09:04:15;18.20;52.90
17080;DHT22;8655;57.106;-2.088;2024-03-17T09:06:41;18.20;52.90
17080;DHT22;8655;57.106;-2.088;2024-03-17T09:09:07;18.20;52.90
17080;DHT22;8655;57.106;-2.088;2024-03-17T09:11:33;18.20;52.90
17080;DHT22;8655;57.106;-2.088;2024-03-17T09:13:59;18.20;52.90
17080;DHT22;8655;57.106;-2.088;2024-03-17T09:16:24;18.20;52.90
17080;DHT22;8655;57.106;-2.088;2024-03-17T09:18:51;18.20;52.80
17080;DHT22;8655;57.106;-2.088;2024-03-17T09:21:17;18.20;52.80
17080;DHT22;8655;57.106;-2.088;2024-03-17T09:23:43;18.20;52.70
17080;DHT22;8655;57.106;-2.088;2024-03-17T09:26:10;18.20;52.70
17080;DHT22;8655;57.106;-2.088;2024-03-17T09:28:38;18.20;52.70
17080;DHT22;8655;57.106;-2.088;2024-03-17T09:31:04;18.20;52.70
17080;DHT22;8655;57.106;-2.088;2024-03-17T09:33:34;18.20;52.70
17080;DHT22;8655;57.106;-2.088;2024-03-17T09:36:04;18.20;52.70
17080;DHT22;8655;57.106;-2.088;2024-03-17T09:38:34;18.20;52.60
17080;DHT22;8655;57.106;-2.088;2024-03-17T09:41:01;18.20;52.60
17080;DHT22;8655;57.106;-2.088;2024-03-17T09:43:28;18.20;52.60
17080;DHT22;8655;57.106;-2.088;2024-03-17T09:45:54;18.20;52.60
17080;DHT22;8655;57.106;-2.088;2024-03-17T09:48:26;18.20;52.60
17080;DHT22;8655;57.106;-2.088;2024-03-17T09:50:56;18.20;52.50
17080;DHT22;8655;57.106;-2.088;2024-03-17T09:53:28;18.20;52.50
17080;DHT22;8655;57.106;-2.088;2024-03-17T09:56:14;18.10;52.40
17080;DHT22;8655;57.106;-2.088;2024-03-17T09:58:42;18.10;52.40
17080;DHT22;8655;57.106;-2.088;2024-03-17T10:01:08;18.10;52.40
17080;DHT22;8655;57.106;-2.088;2024-03-17T10:03:52;18.10;52.40
17080;DHT22;8655;57.106;-2.088;2024-03-17T10:06:23;18.10;52.30
17080;DHT22;8655;57.106;-2.088;2024-03-17T10:08:51;18.10;52.30
17080;DHT22;8655;57.106;-2.088;2024-03-17T10:11:22;18.00;52.20
17080;DHT22;8655;57.106;-2.088;2024-03-17T10:14:05;18.10;52.30
17080;DHT22;8655;57.106;-2.088;2024-03-17T10:16:32;18.10;52.30
17080;DHT22;8655;57.106;-2.088;2024-03-17T10:21:43;18.00;52.10
17080;DHT22;8655;57.106;-2.088;2024-03-17T10:24:13;18.00;52.10
17080;DHT22;8655;57.106;-2.088;2024-03-17T10:27:03;18.00;52.10
17080;DHT22;8655;57.106;-2.088;2024-03-17T10:29:30;18.00;52.10
17080;DHT22;8655;57.106;-2.088;2024-03-17T10:32:15;18.00;52.10
17080;DHT22;8655;57.106;-2.088;2024-03-17T10:34:44;18.00;52.10
17080;DHT22;8655;57.106;-2.088;2024-03-17T10:37:18;18.00;52.10
17080;DHT22;8655;57.106;-2.088;2024-03-17T10:39:46;17.90;52.00
17080;DHT22;8655;57.106;-2.088;2024-03-17T10:42:29;17.90;52.00
17080;DHT22;8655;57.106;-2.088;2024-03-17T10:44:57;17.90;51.90
17080;DHT22;8655;57.106;-2.088;2024-03-17T10:47:26;17.90;52.50
17080;DHT22;8655;57.106;-2.088;2024-03-17T10:49:53;17.90;51.90
17080;DHT22;8655;57.106;-2.088;2024-03-17T10:52:20;17.90;51.90
17080;DHT22;8655;57.106;-2.088;2024-03-17T10:54:50;17.90;51.90
17080;DHT22;8655;57.106;-2.088;2024-03-17T11:00:12;17.80;51.80
17080;DHT22;8655;57.106;-2.088;2024-03-17T11:02:44;17.80;51.80
17080;DHT22;8655;57.106;-2.088;2024-03-17T11:05:16;17.80;51.80
17080;DHT22;8655;57.106;-2.088;2024-03-17T11:07:44;17.80;51.70
17080;DHT22;8655;57.106;-2.088;2024-03-17T11:10:27;17.80;51.80
17080;DHT22;8655;57.106;-2.088;2024-03-17T11:13:00;17.80;51.70
17080;DHT22;8655;57.106;-2.088;2024-03-17T11:23:30;17.70;52.20
17080;DHT22;8655;57.106;-2.088;2024-03-17T11:25:57;17.70;51.60
17080;DHT22;8655;57.106;-2.088;2024-03-17T11:33:59;17.70;51.50
17080;DHT22;8655;57.106;-2.088;2024-03-17T11:36:37;17.70;51.60
17080;DHT22;8655;57.106;-2.088;2024-03-17T11:39:08;17.70;51.60
17080;DHT22;8655;57.106;-2.088;2024-03-17T11:41:49;17.70;51.60
17080;DHT22;8655;57.106;-2.088;2024-03-17T11:46:55;17.70;51.50
17080;DHT22;8655;57.106;-2.088;2024-03-17T11:49:37;17.60;51.40
17080;DHT22;8655;57.106;-2.088;2024-03-17T11:52:14;17.60;51.40
17080;DHT22;8655;57.106;-2.088;2024-03-17T11:54:45;17.60;51.40
17080;DHT22;8655;57.106;-2.088;2024-03-17T11:57:13;17.60;51.40
17080;DHT22;8655;57.106;-2.088;2024-03-17T11:59:40;17.60;51.40
17080;DHT22;8655;57.106;-2.088;2024-03-17T12:02:30;17.60;51.40
17080;DHT22;8655;57.106;-2.088;2024-03-17T12:05:03;17.60;51.40
17080;DHT22;8655;57.106;-2.088;2024-03-17T12:07:31;17.60;51.40
17080;DHT22;8655;57.106;-2.088;2024-03-17T12:09:57;17.60;51.40
17080;DHT22;8655;57.106;-2.088;2024-03-17T12:12:24;17.60;51.40
17080;DHT22;8655;57.106;-2.088;2024-03-17T12:14:56;17.60;51.40
17080;DHT22;8655;57.106;-2.088;2024-03-17T12:17:23;17.60;52.00
17080;DHT22;8655;57.106;-2.088;2024-03-17T12:19:49;17.60;51.40
17080;DHT22;8655;57.106;-2.088;2024-03-17T12:22:20;17.60;51.40
17080;DHT22;8655;57.106;-2.088;2024-03-17T12:24:50;17.60;51.40
17080;DHT22;8655;57.106;-2.088;2024-03-17T12:27:18;17.60;51.40
17080;DHT22;8655;57.106;-2.088;2024-03-17T12:29:44;17.50;51.30
17080;DHT22;8655;57.106;-2.088;2024-03-17T12:34:37;17.50;51.30
17080;DHT22;8655;57.106;-2.088;2024-03-17T12:37:04;17.50;51.30
17080;DHT22;8655;57.106;-2.088;2024-03-17T12:39:33;17.50;51.40
17080;DHT22;8655;57.106;-2.088;2024-03-17T12:44:52;17.50;51.30
17080;DHT22;8655;57.106;-2.088;2024-03-17T12:47:29;17.50;51.30
17080;DHT22;8655;57.106;-2.088;2024-03-17T12:49:56;17.50;51.30
17080;DHT22;8655;57.106;-2.088;2024-03-17T12:52:25;17.50;51.30
17080;DHT22;8655;57.106;-2.088;2024-03-17T12:55:07;17.50;51.30
17080;DHT22;8655;57.106;-2.088;2024-03-17T12:58:12;17.50;51.40
17080;DHT22;8655;57.106;-2.088;2024-03-17T13:01:01;17.50;51.40
17080;DHT22;8655;57.106;-2.088;2024-03-17T13:03:36;17.50;51.30
17080;DHT22;8655;57.106;-2.088;2024-03-17T13:06:05;17.50;51.40
17080;DHT22;8655;57.106;-2.088;2024-03-17T13:08:34;17.50;51.40
17080;DHT22;8655;57.106;-2.088;2024-03-17T13:11:01;17.50;51.40
17080;DHT22;8655;57.106;-2.088;2024-03-17T13:13:29;17.50;51.40
17080;DHT22;8655;57.106;-2.088;2024-03-17T13:15:55;17.50;51.40
17080;DHT22;8655;57.106;-2.088;2024-03-17T13:18:21;17.50;51.40
17080;DHT22;8655;57.106;-2.088;2024-03-17T13:20:48;17.50;51.40
17080;DHT22;8655;57.106;-2.088;2024-03-17T13:23:19;17.50;51.40
17080;DHT22;8655;57.106;-2.088;2024-03-17T13:25:47;17.50;51.40
17080;DHT22;8655;57.106;-2.088;2024-03-17T13:28:13;17.50;51.40
17080;DHT22;8655;57.106;-2.088;2024-03-17T13:30:40;17.50;51.40
17080;DHT22;8655;57.106;-2.088;2024-03-17T13:33:07;17.40;51.30
17080;DHT22;8655;57.106;-2.088;2024-03-17T13:35:37;17.50;51.40
17080;DHT22;8655;57.106;-2.088;2024-03-17T13:38:05;17.50;51.40
17080;DHT22;8655;57.106;-2.088;2024-03-17T13:40:32;17.40;51.30
17080;DHT22;8655;57.106;-2.088;2024-03-17T13:42:58;17.50;51.40
17080;DHT22;8655;57.106;-2.088;2024-03-17T13:45:27;17.40;51.30
17080;DHT22;8655;57.106;-2.088;2024-03-17T13:47:58;17.40;51.40
17080;DHT22;8655;57.106;-2.088;2024-03-17T13:50:24;17.50;51.40
17080;DHT22;8655;57.106;-2.088;2024-03-17T13:52:50;17.50;51.40
17080;DHT22;8655;57.106;-2.088;2024-03-17T13:55:18;17.40;51.30
17080;DHT22;8655;57.106;-2.088;2024-03-17T13:57:46;17.40;51.30
17080;DHT22;8655;57.106;-2.088;2024-03-17T14:00:13;17.40;51.30
17080;DHT22;8655;57.106;-2.088;2024-03-17T14:02:45;17.40;51.30
17080;DHT22;8655;57.106;-2.088;2024-03-17T14:05:17;17.40;51.40
17080;DHT22;8655;57.106;-2.088;2024-03-17T14:07:43;17.40;51.40
17080;DHT22;8655;57.106;-2.088;2024-03-17T14:10:11;17.40;51.40
17080;DHT22;8655;57.106;-2.088;2024-03-17T14:12:38;17.40;51.40
17080;DHT22;8655;57.106;-2.088;2024-03-17T14:15:11;17.40;51.40
17080;DHT22;8655;57.106;-2.088;2024-03-17T14:17:37;17.40;51.40
17080;DHT22;8655;57.106;-2.088;2024-03-17T14:20:04;17.40;51.40
17080;DHT22;8655;57.106;-2.088;2024-03-17T14:22:31;17.40;51.40
17080;DHT22;8655;57.106;-2.088;2024-03-17T14:24:57;17.40;51.40
17080;DHT22;8655;57.106;-2.088;2024-03-17T14:27:23;17.40;51.40
17080;DHT22;8655;57.106;-2.088;2024-03-17T14:29:50;17.40;51.40
17080;DHT22;8655;57.106;-2.088;2024-03-17T14:32:16;17.40;51.40
17080;DHT22;8655;57.106;-2.088;2024-03-17T14:34:42;17.40;51.40
17080;DHT22;8655;57.106;-2.088;2024-03-17T14:37:08;17.40;51.40
17080;DHT22;8655;57.106;-2.088;2024-03-17T14:39:34;17.40;51.40
17080;DHT22;8655;57.106;-2.088;2024-03-17T14:41:59;17.40;51.40
17080;DHT22;8655;57.106;-2.088;2024-03-17T14:44:25;17.40;51.40
17080;DHT22;8655;57.106;-2.088;2024-03-17T14:46:51;17.40;51.40
17080;DHT22;8655;57.106;-2.088;2024-03-17T14:49:17;17.40;51.40
17080;DHT22;8655;57.106;-2.088;2024-03-17T14:51:43;17.40;51.40
17080;DHT22;8655;57.106;-2.088;2024-03-17T14:54:09;17.40;51.40
17080;DHT22;8655;57.106;-2.088;2024-03-17T14:56:35;17.40;51.40
17080;DHT22;8655;57.106;-2.088;2024-03-17T14:59:01;17.40;51.40
17080;DHT22;8655;57.106;-2.088;2024-03-17T15:01:26;17.40;51.40
17080;DHT22;8655;57.106;-2.088;2024-03-17T15:03:58;17.40;51.40
17080;DHT22;8655;57.106;-2.088;2024-03-17T15:06:24;17.40;51.40
17080;DHT22;8655;57.106;-2.088;2024-03-17T15:08:50;17.40;51.40
17080;DHT22;8655;57.106;-2.088;2024-03-17T15:11:16;17.40;51.40
17080;DHT22;8655;57.106;-2.088;2024-03-17T15:13:43;17.40;51.40
17080;DHT22;8655;57.106;-2.088;2024-03-17T15:16:09;17.40;51.40
17080;DHT22;8655;57.106;-2.088;2024-03-17T15:18:35;17.40;51.40
17080;DHT22;8655;57.106;-2.088;2024-03-17T15:21:02;17.40;51.40
17080;DHT22;8655;57.106;-2.088;2024-03-17T15:23:30;17.40;51.40
17080;DHT22;8655;57.106;-2.088;2024-03-17T15:26:03;17.40;51.40
17080;DHT22;8655;57.106;-2.088;2024-03-17T15:28:41;17.40;51.40
17080;DHT22;8655;57.106;-2.088;2024-03-17T15:31:07;17.40;51.40
17080;DHT22;8655;57.106;-2.088;2024-03-17T15:33:34;17.40;51.50
17080;DHT22;8655;57.106;-2.088;2024-03-17T15:36:04;17.40;51.40
17080;DHT22;8655;57.106;-2.088;2024-03-17T15:38:37;17.40;51.40
17080;DHT22;8655;57.106;-2.088;2024-03-17T15:41:04;17.40;51.40
17080;DHT22;8655;57.106;-2.088;2024-03-17T15:43:36;17.40;51.40
17080;DHT22;8655;57.106;-2.088;2024-03-17T15:46:08;17.40;51.50
17080;DHT22;8655;57.106;-2.088;2024-03-17T15:48:34;17.40;51.50
17080;DHT22;8655;57.106;-2.088;2024-03-17T15:50:59;17.40;51.50
17080;DHT22;8655;57.106;-2.088;2024-03-17T15:53:26;17.40;51.40
17080;DHT22;8655;57.106;-2.088;2024-03-17T15:56:01;17.40;51.40
17080;DHT22;8655;57.106;-2.088;2024-03-17T15:58:29;17.40;51.50
17080;DHT22;8655;57.106;-2.088;2024-03-17T16:00:55;17.40;51.50
17080;DHT22;8655;57.106;-2.088;2024-03-17T16:03:31;17.40;51.50
17080;DHT22;8655;57.106;-2.088;2024-03-17T16:06:02;17.40;51.50
17080;DHT22;8655;57.106;-2.088;2024-03-17T16:08:33;17.40;51.50
17080;DHT22;8655;57.106;-2.088;2024-03-17T16:10:59;17.40;51.50